Time;durP1;ratioP1;P1;durP2;ratioP2;P2;SDS_P1;SDS_P2;PMS_P1;PMS_P2;Temp;Humidity;BMP_temperature;BMP_pressure;BME280_temperature;BME280_humidity;BME280_pressure;Samples;Min_cycle;Max_cycle;Signal;HPM_P1;HPM_P2
2024/03/02 00:00:51;;;;;;;11.15;7.78;;;19.30;55.60;;;;;;5010633;28;20034;-50
2024/03/02 00:03:21;;;;;;;11.35;8.13;;;19.30;55.60;;;;;;5012387;28;20026;-52
2024/03/02 00:05:51;;;;;;;7.75;6.95;;;19.30;55.60;;;;;;5008392;28;20511;-55
2024/03/02 00:08:24;;;;;;;10.13;7.97;;;19.30;55.60;;;;;;4998890;28;20092;-49
2024/03/02 00:10:49;;;;;;;8.85;7.15;;;19.20;55.50;;;;;;4989710;28;20507;-48
2024/03/02 00:13:15;;;;;;;9.35;7.43;;;19.30;55.60;;;;;;5016333;28;20041;-51
2024/03/02 00:15:47;;;;;;;9.30;7.07;;;19.30;55.60;;;;;;5008531;28;20033;-48
2024/03/02 00:18:16;;;;;;;8.68;7.75;;;19.30;55.60;;;;;;5013167;28;20107;-49
2024/03/02 00:20:41;;;;;;;9.52;7.30;;;19.30;55.60;;;;;;5014091;28;20120;-51
2024/03/02 00:23:10;;;;;;;10.32;7.63;;;19.30;55.60;;;;;;5013630;28;20034;-49
2024/03/02 00:25:48;;;;;;;8.27;7.05;;;19.30;55.60;;;;;;5013726;28;20096;-48
2024/03/02 00:28:15;;;;;;;7.65;6.80;;;19.30;55.60;;;;;;5016147;28;20053;-51
2024/03/02 00:31:00;;;;;;;10.75;7.28;;;19.30;55.60;;;;;;5014765;28;20507;-49
2024/03/02 00:33:28;;;;;;;7.80;6.97;;;19.30;55.60;;;;;;5018535;28;20057;-50
2024/03/02 00:35:54;;;;;;;8.35;6.20;;;19.30;55.60;;;;;;5015503;28;20049;-49
2024/03/02 00:38:20;;;;;;;7.75;6.45;;;19.30;55.60;;;;;;5013250;28;20083;-48
2024/03/02 00:40:46;;;;;;;8.38;7.20;;;19.30;55.60;;;;;;5016783;28;20029;-48
2024/03/02 00:43:41;;;;;;;9.27;6.90;;;19.30;55.60;;;;;;5003315;28;20029;-49
2024/03/02 00:46:07;;;;;;;7.95;6.88;;;19.30;55.70;;;;;;5011926;28;20076;-49
2024/03/02 00:48:35;;;;;;;10.65;6.82;;;19.30;55.70;;;;;;5006327;28;20466;-51
2024/03/02 00:51:03;;;;;;;9.55;6.25;;;19.30;55.70;;;;;;5017091;28;20410;-50
2024/03/02 00:53:30;;;;;;;6.97;6.28;;;19.30;55.70;;;;;;5012239;28;20116;-51
2024/03/02 00:55:56;;;;;;;7.35;6.20;;;19.20;55.70;;;;;;5014943;28;20125;-50
2024/03/02 00:58:21;;;;;;;10.73;7.57;;;19.30;55.70;;;;;;5015848;28;20083;-51
2024/03/02 01:00:47;;;;;;;7.88;6.50;;;19.30;55.70;;;;;;5013158;28;20515;-50
2024/03/02 01:03:12;;;;;;;8.80;6.95;;;19.20;55.70;;;;;;5016429;28;20075;-50
2024/03/02 01:05:42;;;;;;;7.90;6.25;;;19.20;55.80;;;;;;5012088;28;20042;-50
2024/03/02 01:08:08;;;;;;;7.35;6.57;;;19.20;55.80;;;;;;5015244;28;20059;-49
2024/03/02 01:10:34;;;;;;;8.82;6.50;;;19.20;55.90;;;;;;5014695;28;20044;-49
2024/03/02 01:12:59;;;;;;;7.53;6.30;;;19.20;56.00;;;;;;5012323;28;20029;-50
2024/03/02 01:15:25;;;;;;;7.88;6.68;;;19.20;56.10;;;;;;5011959;28;20091;-50
2024/03/02 01:17:50;;;;;;;7.45;6.18;;;19.10;56.00;;;;;;5012388;28;20041;-50
2024/03/02 01:20:16;;;;;;;7.85;6.13;;;19.10;56.10;;;;;;5012917;28;20037;-49
2024/03/02 01:22:41;;;;;;;8.38;6.40;;;19.10;56.10;;;;;;5012386;28;20033;-48
2024/03/02 01:25:08;;;;;;;6.85;6.05;;;19.00;56.10;;;;;;5014730;28;20112;-49
2024/03/02 01:27:34;;;;;;;8.90;6.85;;;19.00;56.20;;;;;;5012001;28;20112;-50
2024/03/02 01:29:59;;;;;;;7.03;5.78;;;19.00;55.80;;;;;;5013735;28;20796;-50
2024/03/02 01:32:25;;;;;;;7.05;5.88;;;19.00;56.40;;;;;;5013882;28;20034;-49
2024/03/02 01:34:50;;;;;;;6.90;6.20;;;19.00;56.50;;;;;;5013486;28;20030;-52
2024/03/02 01:37:16;;;;;;;7.82;5.85;;;19.00;56.70;;;;;;5012788;28;20037;-48
2024/03/02 01:39:41;;;;;;;7.07;6.38;;;18.90;56.60;;;;;;5016122;28;20033;-51
2024/03/02 01:42:07;;;;;;;7.45;6.20;;;18.90;56.70;;;;;;5012301;28;20022;-49
2024/03/02 01:44:33;;;;;;;6.68;5.75;;;18.90;56.70;;;;;;5014433;28;20032;-49
2024/03/02 01:46:58;;;;;;;7.15;5.85;;;18.90;56.70;;;;;;5016783;28;20757;-51
2024/03/02 01:49:24;;;;;;;7.57;6.25;;;18.90;56.70;;;;;;5016384;28;20690;-50
2024/03/02 01:51:49;;;;;;;7.82;6.00;;;18.80;56.60;;;;;;5012881;28;20038;-50
2024/03/02 01:54:15;;;;;;;6.32;5.68;;;18.80;56.70;;;;;;5013338;28;20144;-49
2024/03/02 01:56:40;;;;;;;9.07;6.43;;;18.80;56.80;;;;;;5011756;28;20395;-52
2024/03/02 01:59:06;;;;;;;7.18;5.72;;;18.80;56.80;;;;;;5011443;28;20026;-49
2024/03/02 02:01:32;;;;;;;6.47;5.47;;;18.80;56.80;;;;;;5014368;28;20033;-48
2024/03/02 02:03:57;;;;;;;6.72;5.68;;;18.80;57.00;;;;;;5014414;28;20021;-50
2024/03/02 02:06:23;;;;;;;6.20;5.60;;;18.80;57.00;;;;;;5012713;28;20740;-49
2024/03/02 02:08:48;;;;;;;7.03;6.00;;;18.70;57.00;;;;;;5015466;28;20038;-50
2024/03/02 02:11:17;;;;;;;6.65;5.95;;;18.70;57.00;;;;;;5014697;28;20029;-48
2024/03/02 02:13:42;;;;;;;7.28;6.22;;;18.70;57.00;;;;;;5014255;28;20518;-48
2024/03/02 02:16:08;;;;;;;6.47;5.82;;;18.70;57.00;;;;;;5003757;28;20033;-52
2024/03/02 02:18:35;;;;;;;7.03;6.32;;;18.70;57.10;;;;;;5015088;28;20121;-55
2024/03/02 02:21:01;;;;;;;6.90;5.97;;;18.70;57.10;;;;;;5014820;28;20050;-47
2024/03/02 02:23:27;;;;;;;5.20;4.65;;;18.70;57.20;;;;;;5000646;28;20053;-48
2024/03/02 02:25:52;;;;;;;6.05;5.18;;;18.70;57.00;;;;;;5014090;28;20030;-52
2024/03/02 02:28:18;;;;;;;6.60;5.63;;;18.80;56.80;;;;;;5014298;28;20076;-48
2024/03/02 02:30:43;;;;;;;9.05;5.18;;;19.00;56.50;;;;;;5006259;28;20148;-54
2024/03/02 02:33:09;;;;;;;6.22;5.30;;;19.10;56.20;;;;;;5013886;28;20057;-49
2024/03/02 02:35:35;;;;;;;6.28;5.38;;;19.20;55.90;;;;;;5019396;28;20041;-54
2024/03/02 02:38:00;;;;;;;5.82;5.22;;;19.40;55.70;;;;;;5013502;28;20426;-50
2024/03/02 02:40:27;;;;;;;6.03;5.40;;;19.40;55.30;;;;;;5014387;28;20382;-50
2024/03/02 02:42:52;;;;;;;6.82;5.55;;;19.50;55.20;;;;;;5012157;28;20123;-53
2024/03/02 02:45:18;;;;;;;7.53;5.43;;;19.60;55.10;;;;;;5016833;28;20639;-49
2024/03/02 02:47:44;;;;;;;6.40;5.43;;;19.70;55.00;;;;;;5013298;28;20112;-48
2024/03/02 02:50:11;;;;;;;6.32;5.38;;;19.70;54.80;;;;;;5015114;28;20037;-51
2024/03/02 02:52:40;;;;;;;6.35;5.72;;;19.80;54.70;;;;;;5012811;28;20030;-50
2024/03/02 02:55:07;;;;;;;5.30;4.75;;;19.90;54.60;;;;;;5016534;28;20093;-57
2024/03/02 02:57:37;;;;;;;6.70;5.43;;;19.90;54.50;;;;;;5009612;28;20040;-51
2024/03/02 03:00:13;;;;;;;6.13;5.28;;;19.90;54.40;;;;;;5012837;28;20057;-51
2024/03/02 03:02:41;;;;;;;6.53;5.20;;;20.00;54.40;;;;;;5011037;28;20030;-49
2024/03/02 03:05:08;;;;;;;5.32;4.75;;;20.00;54.30;;;;;;5009249;28;20033;-50
2024/03/02 03:07:37;;;;;;;7.13;5.00;;;20.00;54.40;;;;;;5011570;28;20034;-50
2024/03/02 03:10:04;;;;;;;5.03;4.50;;;19.90;54.40;;;;;;5014316;28;20510;-49
2024/03/02 03:12:31;;;;;;;5.57;5.00;;;19.90;54.50;;;;;;5005883;28;20447;-51
2024/03/02 03:14:57;;;;;;;6.47;5.15;;;19.80;54.50;;;;;;5009011;28;20052;-50
2024/03/02 03:17:23;;;;;;;7.32;5.25;;;19.90;54.60;;;;;;5010069;28;20038;-49
2024/03/02 03:19:49;;;;;;;8.02;5.45;;;19.80;54.70;;;;;;5009006;28;20105;-50
2024/03/02 03:22:14;;;;;;;6.70;5.32;;;19.80;54.80;;;;;;5011380;28;20042;-49
2024/03/02 03:24:40;;;;;;;6.50;5.38;;;19.70;54.80;;;;;;5011081;28;20564;-50
2024/03/02 03:27:05;;;;;;;5.88;5.28;;;19.70;54.90;;;;;;5008019;28;20034;-50
2024/03/02 03:29:31;;;;;;;6.68;5.40;;;19.70;54.90;;;;;;5013829;28;20115;-48
2024/03/02 03:31:56;;;;;;;5.95;5.28;;;19.70;55.10;;;;;;5005816;28;20530;-49
2024/03/02 03:34:22;;;;;;;5.18;4.68;;;19.60;55.10;;;;;;5008821;28;20080;-48
2024/03/02 03:36:47;;;;;;;6.45;4.70;;;19.60;55.20;;;;;;5010487;28;20044;-49
2024/03/02 03:39:13;;;;;;;6.13;5.15;;;19.50;55.20;;;;;;5011410;28;20072;-48
2024/03/02 03:41:40;;;;;;;6.68;5.85;;;19.50;55.30;;;;;;5008198;28;20706;-51
2024/03/02 03:44:05;;;;;;;5.95;5.35;;;19.50;55.40;;;;;;5012998;28;20045;-48
2024/03/02 03:46:31;;;;;;;5.72;5.15;;;19.50;55.40;;;;;;5014722;28;20176;-49
2024/03/02 03:48:56;;;;;;;6.60;4.90;;;19.40;56.10;;;;;;5010090;28;20041;-50
2024/03/02 03:51:22;;;;;;;5.38;4.88;;;19.40;55.50;;;;;;5014521;28;20055;-48
2024/03/02 03:53:48;;;;;;;5.88;5.03;;;19.40;55.70;;;;;;5009942;28;20042;-52
2024/03/02 03:56:14;;;;;;;6.10;5.38;;;19.30;55.70;;;;;;5008993;28;20041;-48
2024/03/02 03:58:39;;;;;;;5.68;5.07;;;19.30;55.80;;;;;;5010115;28;20038;-49
2024/03/02 04:01:05;;;;;;;6.22;5.57;;;19.30;55.90;;;;;;5011852;28;20033;-53
2024/03/02 04:03:30;;;;;;;5.75;4.50;;;19.20;55.90;;;;;;5008251;28;20160;-48
2024/03/02 04:05:56;;;;;;;7.35;4.75;;;19.20;56.00;;;;;;5012877;28;20049;-51
2024/03/02 04:08:21;;;;;;;6.68;5.78;;;19.20;56.10;;;;;;5011112;28;20551;-55
2024/03/02 04:10:47;;;;;;;5.30;4.80;;;19.20;56.10;;;;;;5011658;28;20136;-51
2024/03/02 04:13:12;;;;;;;5.60;4.97;;;19.10;56.10;;;;;;5012506;28;20625;-48
2024/03/02 04:15:38;;;;;;;5.82;5.32;;;19.10;56.10;;;;;;5012894;28;20030;-50
2024/03/02 04:18:04;;;;;;;5.90;5.30;;;19.10;56.20;;;;;;5009453;28;20056;-51
2024/03/02 04:20:29;;;;;;;5.70;5.10;;;19.10;56.20;;;;;;5014112;28;20037;-52
2024/03/02 04:22:55;;;;;;;6.70;5.32;;;19.00;56.20;;;;;;5010187;28;20026;-54
2024/03/02 04:25:21;;;;;;;6.93;5.93;;;19.00;56.20;;;;;;5009855;28;20030;-49
2024/03/02 04:27:47;;;;;;;7.47;5.00;;;19.00;56.30;;;;;;5005264;28;20120;-50
2024/03/02 04:30:12;;;;;;;5.90;4.93;;;19.00;56.30;;;;;;5008551;28;20018;-49
2024/03/02 04:32:38;;;;;;;5.95;4.75;;;19.00;56.40;;;;;;5016266;28;20037;-54
2024/03/02 04:35:05;;;;;;;5.78;4.82;;;19.00;56.40;;;;;;4998374;28;20072;-51
2024/03/02 04:37:32;;;;;;;8.85;5.68;;;18.90;56.40;;;;;;5008695;28;20038;-55
2024/03/02 04:39:57;;;;;;;6.55;5.13;;;18.90;56.50;;;;;;5007407;28;20029;-52
2024/03/02 04:42:23;;;;;;;5.50;4.68;;;18.90;56.50;;;;;;5007633;28;20383;-50
2024/03/02 04:44:48;;;;;;;5.55;4.95;;;18.90;56.60;;;;;;5009335;28;20085;-53
2024/03/02 04:47:14;;;;;;;6.43;5.65;;;18.90;56.60;;;;;;5007030;28;20030;-54
2024/03/02 04:49:39;;;;;;;6.60;5.80;;;18.90;56.70;;;;;;5010515;28;20045;-48
2024/03/02 04:52:05;;;;;;;5.57;4.60;;;18.90;56.60;;;;;;4992081;28;20037;-47
2024/03/02 04:54:30;;;;;;;6.13;5.47;;;18.90;56.60;;;;;;5004949;28;20053;-53
2024/03/02 04:56:56;;;;;;;5.75;5.25;;;18.90;56.60;;;;;;5010920;28;20573;-46
2024/03/02 04:59:22;;;;;;;5.47;4.95;;;18.90;56.60;;;;;;5005693;28;20180;-48
2024/03/02 05:01:47;;;;;;;7.10;5.60;;;18.90;56.50;;;;;;5009521;28;20041;-46
2024/03/02 05:04:13;;;;;;;6.60;5.30;;;18.90;56.40;;;;;;5012948;28;20041;-51
2024/03/02 05:06:42;;;;;;;7.57;5.00;;;19.00;56.30;;;;;;5011589;28;20457;-52
2024/03/02 05:09:10;;;;;;;5.43;4.90;;;19.00;56.20;;;;;;5010066;28;20038;-51
2024/03/02 05:11:56;;;;;;;6.00;5.40;;;19.10;56.00;;;;;;5016711;28;20034;-54
2024/03/02 05:14:21;;;;;;;6.05;5.45;;;19.20;56.00;;;;;;5012051;28;20037;-47
2024/03/02 05:16:47;;;;;;;5.72;5.13;;;19.20;55.80;;;;;;5013811;28;20518;-54
2024/03/02 05:19:12;;;;;;;5.47;4.97;;;19.30;55.70;;;;;;5016801;28;20102;-46
2024/03/02 05:21:38;;;;;;;5.60;4.80;;;19.30;55.60;;;;;;5015550;28;20033;-48
2024/03/02 05:24:03;;;;;;;5.90;5.30;;;19.30;55.50;;;;;;5010564;28;20045;-50
2024/03/02 05:26:29;;;;;;;7.05;5.68;;;19.30;55.40;;;;;;5016784;28;20045;-55
2024/03/02 05:28:54;;;;;;;5.57;4.93;;;19.40;55.50;;;;;;5009067;28;20471;-52
2024/03/02 05:31:20;;;;;;;6.05;4.63;;;19.50;55.40;;;;;;5012431;28;20120;-52
2024/03/02 05:33:45;;;;;;;6.53;5.05;;;19.50;55.30;;;;;;5014744;28;20045;-49
2024/03/02 05:36:11;;;;;;;6.28;5.03;;;19.50;55.20;;;;;;5011303;28;20057;-51
2024/03/02 05:38:36;;;;;;;7.35;5.20;;;19.50;55.10;;;;;;5010129;28;20105;-58
2024/03/02 05:41:03;;;;;;;5.32;4.82;;;19.50;55.10;;;;;;5014575;28;20034;-47
2024/03/02 05:43:28;;;;;;;5.93;5.13;;;19.50;55.10;;;;;;5014542;28;20095;-50
2024/03/02 05:45:54;;;;;;;6.63;5.35;;;19.60;55.10;;;;;;5012581;28;20483;-49
2024/03/02 05:48:19;;;;;;;5.50;4.97;;;19.60;55.10;;;;;;5014947;28;20045;-51
2024/03/02 05:50:45;;;;;;;6.35;4.55;;;19.60;55.10;;;;;;5011119;28;20034;-49
2024/03/02 05:53:10;;;;;;;5.75;4.57;;;19.60;55.30;;;;;;5011435;28;20040;-51
2024/03/02 05:55:36;;;;;;;5.28;4.78;;;19.60;55.30;;;;;;5020310;28;20117;-48
2024/03/02 06:00:46;;;;;;;6.13;4.60;;;19.50;55.20;;;;;;5010448;28;20646;-49
2024/03/02 06:03:11;;;;;;;6.53;5.57;;;19.60;55.30;;;;;;5015512;28;20034;-51
2024/03/02 06:05:37;;;;;;;6.32;4.95;;;19.60;55.30;;;;;;5008865;28;20072;-55
2024/03/02 06:08:02;;;;;;;5.28;4.78;;;19.50;55.30;;;;;;5012589;28;20092;-48
2024/03/02 06:10:28;;;;;;;6.05;5.28;;;19.50;55.40;;;;;;5017425;28;20033;-49
2024/03/02 06:12:53;;;;;;;5.30;4.40;;;19.40;55.40;;;;;;5008969;28;20037;-49
2024/03/02 06:15:19;;;;;;;5.43;4.93;;;19.40;55.50;;;;;;5012448;28;20970;-48
2024/03/02 06:17:44;;;;;;;5.18;4.65;;;19.40;55.50;;;;;;5007828;28;20038;-49
2024/03/02 06:20:10;;;;;;;5.35;4.85;;;19.40;55.40;;;;;;5012845;28;20068;-49
2024/03/02 06:22:36;;;;;;;5.35;4.85;;;19.40;55.40;;;;;;5012140;28;20743;-50
2024/03/02 06:25:01;;;;;;;6.90;5.10;;;19.40;55.40;;;;;;5015153;28;20033;-48
2024/03/02 06:27:27;;;;;;;13.30;5.40;;;19.40;55.50;;;;;;5009004;28;20044;-50
2024/03/02 06:29:53;;;;;;;5.55;4.90;;;19.40;55.50;;;;;;5012556;28;20092;-49
2024/03/02 06:32:18;;;;;;;5.90;5.18;;;19.40;55.50;;;;;;5015729;28;20030;-51
2024/03/02 06:34:44;;;;;;;5.93;5.32;;;19.40;55.50;;;;;;5007957;28;20045;-52
2024/03/02 06:37:09;;;;;;;5.72;4.57;;;19.40;55.50;;;;;;5009417;28;20087;-49
2024/03/02 06:39:36;;;;;;;6.00;4.50;;;19.30;55.50;;;;;;5003825;28;20055;-47
2024/03/02 06:42:01;;;;;;;5.35;4.75;;;19.40;55.50;;;;;;5002690;28;20033;-49
2024/03/02 06:44:27;;;;;;;5.65;4.72;;;19.40;55.60;;;;;;5010850;28;20095;-51
2024/03/02 06:46:52;;;;;;;5.30;4.80;;;19.40;55.60;;;;;;5009950;28;20121;-52
2024/03/02 06:49:18;;;;;;;5.38;4.88;;;19.30;55.70;;;;;;5010733;28;20038;-50
2024/03/02 06:51:44;;;;;;;5.00;4.50;;;19.30;55.80;;;;;;5010637;28;20680;-48
2024/03/02 06:54:10;;;;;;;6.97;5.00;;;19.30;55.80;;;;;;5015635;28;20617;-48
2024/03/02 06:56:35;;;;;;;5.43;4.93;;;19.30;55.90;;;;;;5013295;28;20132;-51
2024/03/02 06:59:01;;;;;;;6.80;5.00;;;19.30;55.80;;;;;;5009676;28;20643;-47
2024/03/02 07:01:27;;;;;;;5.50;4.90;;;19.30;55.80;;;;;;5014142;28;20046;-51
2024/03/02 07:03:53;;;;;;;5.72;4.88;;;19.30;55.80;;;;;;5010843;28;20128;-49
2024/03/02 07:06:19;;;;;;;5.60;5.05;;;19.20;55.80;;;;;;5006299;28;20889;-48
2024/03/02 07:08:44;;;;;;;5.03;4.47;;;19.20;55.90;;;;;;5012850;28;20042;-49
2024/03/02 07:11:10;;;;;;;5.50;4.90;;;19.20;55.80;;;;;;5007895;28;20171;-49
2024/03/02 07:13:35;;;;;;;5.55;4.47;;;19.20;55.90;;;;;;5011956;28;20029;-50
2024/03/02 07:18:33;;;;;;;5.53;4.22;;;19.20;55.90;;;;;;5008540;28;20041;-49
2024/03/02 07:21:00;;;;;;;5.25;4.68;;;19.20;55.80;;;;;;5014672;28;20033;-49
2024/03/02 07:23:27;;;;;;;5.88;5.03;;;19.20;55.90;;;;;;5011753;28;20071;-50
2024/03/02 07:25:56;;;;;;;5.15;4.65;;;19.20;55.90;;;;;;5008985;28;20041;-49
2024/03/02 07:28:22;;;;;;;5.32;4.53;;;19.20;55.90;;;;;;5010203;28;20030;-51
2024/03/02 07:30:58;;;;;;;4.82;4.43;;;19.20;55.90;;;;;;5014674;28;20076;-51
2024/03/02 07:33:23;;;;;;;;;;;19.20;56.00;;;;;;5008416;28;20041;-50
2024/03/02 07:35:48;;;;;;;5.43;4.90;;;19.20;55.90;;;;;;5016000;28;19943;-51
2024/03/02 07:38:14;;;;;;;6.25;5.40;;;19.20;56.00;;;;;;5011677;28;20517;-51
2024/03/02 07:40:40;;;;;;;5.63;4.93;;;19.20;56.00;;;;;;5009018;28;20037;-50
2024/03/02 07:43:05;;;;;;;6.90;4.85;;;19.20;56.00;;;;;;5006802;28;20037;-50
2024/03/02 07:45:31;;;;;;;6.85;5.38;;;19.20;56.00;;;;;;5006819;28;20030;-51
2024/03/02 07:47:57;;;;;;;6.07;4.60;;;19.20;56.00;;;;;;5008247;28;20124;-49
2024/03/02 07:50:22;;;;;;;5.60;5.07;;;19.20;56.10;;;;;;5008937;28;20033;-49
2024/03/02 07:52:48;;;;;;;9.15;4.68;;;19.20;56.20;;;;;;5010481;28;20034;-50
2024/03/02 07:55:13;;;;;;;5.95;4.55;;;19.20;56.30;;;;;;5006572;28;20403;-53
2024/03/02 07:57:40;;;;;;;7.53;4.60;;;19.20;56.40;;;;;;5006351;28;20026;-48
2024/03/02 08:00:06;;;;;;;6.72;5.70;;;19.20;56.50;;;;;;5003869;28;20108;-49
2024/03/02 08:02:32;;;;;;;10.10;7.30;;;19.20;56.60;;;;;;5004510;28;20036;-50
2024/03/02 08:04:57;;;;;;;19.13;8.18;;;19.20;56.60;;;;;;5006065;28;20026;-48
2024/03/02 08:07:23;;;;;;;13.23;8.68;;;19.20;56.70;;;;;;5009341;28;20053;-48
2024/03/02 08:09:48;;;;;;;15.52;9.43;;;19.20;57.00;;;;;;5004411;28;20418;-49
2024/03/02 08:12:14;;;;;;;16.95;10.02;;;19.20;57.00;;;;;;4991675;28;20051;-51
2024/03/02 08:14:40;;;;;;;14.27;8.82;;;19.20;57.20;;;;;;5008657;28;20167;-49
2024/03/02 08:17:09;;;;;;;11.48;8.70;;;19.20;57.60;;;;;;5008719;28;20496;-48
2024/03/02 08:19:35;;;;;;;15.30;9.77;;;19.20;57.50;;;;;;5008947;28;20526;-57
2024/03/02 08:22:00;;;;;;;14.43;8.60;;;19.20;57.30;;;;;;5009076;28;20092;-49
2024/03/02 08:24:26;;;;;;;15.82;9.45;;;19.10;57.20;;;;;;5007345;28;21069;-50
2024/03/02 08:26:51;;;;;;;23.05;9.95;;;19.10;57.10;;;;;;5008777;28;20042;-49
2024/03/02 08:29:18;;;;;;;16.85;9.20;;;19.10;57.00;;;;;;5012970;28;20042;-50
2024/03/02 08:31:43;;;;;;;14.75;9.55;;;19.00;57.00;;;;;;5010089;28;20519;-50
2024/03/02 08:34:09;;;;;;;17.63;9.65;;;19.00;57.10;;;;;;5008253;28;20100;-51
2024/03/02 08:36:34;;;;;;;11.63;8.30;;;19.00;57.10;;;;;;5009054;28;20042;-49
2024/03/02 08:39:00;;;;;;;16.48;9.55;;;19.00;57.20;;;;;;4991212;28;20034;-50
2024/03/02 08:41:25;;;;;;;18.88;9.73;;;18.90;57.20;;;;;;5012228;28;20033;-49
2024/03/02 08:43:51;;;;;;;14.02;9.27;;;18.90;57.30;;;;;;5013749;28;20133;-50
2024/03/02 08:46:17;;;;;;;15.52;8.25;;;18.90;57.30;;;;;;5008964;28;20121;-50
2024/03/02 08:48:42;;;;;;;13.07;8.70;;;18.80;57.30;;;;;;5012505;28;20081;-50
2024/03/02 08:51:10;;;;;;;12.50;8.63;;;18.80;57.40;;;;;;5015602;28;20494;-50
2024/03/02 08:53:35;;;;;;;13.77;8.77;;;18.80;57.40;;;;;;5011518;28;20064;-52
2024/03/02 08:56:01;;;;;;;12.00;9.25;;;18.80;57.40;;;;;;5015099;28;20448;-50
2024/03/02 08:58:27;;;;;;;13.50;9.07;;;18.80;57.40;;;;;;5013802;28;20158;-49
2024/03/02 09:00:52;;;;;;;12.02;8.20;;;18.80;57.40;;;;;;5010236;28;20041;-49
2024/03/02 09:03:18;;;;;;;11.48;8.60;;;18.80;57.40;;;;;;5010888;28;20030;-50
2024/03/02 09:05:43;;;;;;;11.90;8.23;;;18.80;57.40;;;;;;5014058;28;20038;-49
2024/03/02 09:08:09;;;;;;;13.35;8.48;;;18.70;57.50;;;;;;4994605;28;20038;-50
2024/03/02 09:10:34;;;;;;;12.68;9.00;;;18.70;57.40;;;;;;5014384;28;20492;-50
2024/03/02 09:13:00;;;;;;;13.95;8.18;;;18.70;57.40;;;;;;5008507;28;20049;-49
2024/03/02 09:15:25;;;;;;;10.88;7.80;;;18.80;57.30;;;;;;5009702;28;20995;-51
2024/03/02 09:17:51;;;;;;;14.02;8.20;;;18.80;57.20;;;;;;5012785;28;20037;-49
2024/03/02 09:20:16;;;;;;;11.93;7.93;;;18.80;57.10;;;;;;5010491;28;20088;-49
2024/03/02 09:22:42;;;;;;;11.10;8.00;;;18.80;57.00;;;;;;5009358;28;20029;-50
2024/03/02 09:25:08;;;;;;;13.43;8.60;;;18.90;56.90;;;;;;5012715;28;20043;-50
2024/03/02 09:27:37;;;;;;;10.48;7.07;;;18.90;56.80;;;;;;5013943;28;20498;-49
2024/03/02 09:30:04;;;;;;;10.52;7.57;;;19.00;56.70;;;;;;5003961;28;20045;-50
2024/03/02 09:32:30;;;;;;;11.27;7.60;;;19.00;56.50;;;;;;5013313;28;20686;-48
2024/03/02 09:34:56;;;;;;;12.02;7.53;;;19.10;56.50;;;;;;5011943;28;20041;-47
2024/03/02 09:37:21;;;;;;;11.35;7.88;;;19.10;56.30;;;;;;5008189;28;20060;-54
2024/03/02 09:39:47;;;;;;;12.45;8.27;;;19.10;56.30;;;;;;5013145;28;20041;-48
2024/03/02 09:42:13;;;;;;;12.32;7.82;;;19.10;56.20;;;;;;5005336;28;20050;-50
2024/03/02 09:44:39;;;;;;;11.40;8.30;;;19.20;56.10;;;;;;5009310;28;20171;-48
2024/03/02 09:47:06;;;;;;;10.70;7.47;;;19.20;56.00;;;;;;5009527;28;20504;-51
2024/03/02 09:49:31;;;;;;;11.00;7.53;;;19.30;56.00;;;;;;5012371;28;20107;-51
2024/03/02 09:51:57;;;;;;;10.95;7.95;;;19.30;55.90;;;;;;5010891;28;20045;-51
2024/03/02 09:54:23;;;;;;;10.05;6.85;;;19.30;55.90;;;;;;5014700;28;20061;-48
2024/03/02 09:56:49;;;;;;;9.02;7.28;;;19.30;55.80;;;;;;5005976;28;20056;-51
2024/03/02 09:59:17;;;;;;;13.20;7.18;;;19.40;55.80;;;;;;5008328;28;20395;-49
2024/03/02 10:01:59;;;;;;;11.00;7.40;;;19.30;55.80;;;;;;5012005;28;20079;-52
2024/03/02 10:04:30;;;;;;;11.70;7.78;;;19.40;55.70;;;;;;5007583;28;20038;-50
2024/03/02 10:07:16;;;;;;;12.38;8.10;;;19.50;55.90;;;;;;5009289;28;20034;-49
2024/03/02 10:09:42;;;;;;;15.40;8.77;;;19.60;55.70;;;;;;5013473;28;20065;-51
2024/03/02 10:12:09;;;;;;;25.10;9.18;;;19.70;55.70;;;;;;5007394;28;20085;-50
2024/03/02 10:14:35;;;;;;;15.38;8.30;;;19.70;55.70;;;;;;5009743;28;20049;-51
2024/03/02 10:17:08;;;;;;;18.67;9.15;;;19.80;55.80;;;;;;5011675;28;20037;-49
2024/03/02 10:19:36;;;;;;;17.33;8.63;;;19.70;55.90;;;;;;5011181;28;20491;-50
2024/03/02 10:22:07;;;;;;;18.65;8.02;;;19.70;55.90;;;;;;5012328;28;20688;-51
2024/03/02 10:24:46;;;;;;;18.48;9.60;;;19.70;55.90;;;;;;5015684;28;20159;-51
2024/03/02 10:27:23;;;;;;;15.40;8.00;;;19.60;55.80;;;;;;5004129;28;20136;-53
2024/03/02 10:29:49;;;;;;;13.73;8.10;;;19.60;55.80;;;;;;5014986;28;20040;-49
2024/03/02 10:32:15;;;;;;;15.20;8.38;;;19.60;55.80;;;;;;5037002;23;20037;-51
2024/03/02 10:34:42;;;;;;;12.85;7.82;;;19.60;55.70;;;;;;5038186;28;20143;-50
2024/03/02 10:37:08;;;;;;;13.48;8.02;;;19.60;55.70;;;;;;5038907;28;20037;-50
2024/03/02 10:39:39;;;;;;;14.93;7.78;;;19.60;55.70;;;;;;5034308;28;20033;-50
2024/03/02 10:42:05;;;;;;;13.05;7.47;;;19.50;55.60;;;;;;5035695;28;20596;-51
2024/03/02 10:44:33;;;;;;;12.25;7.28;;;19.60;55.70;;;;;;5034432;28;20418;-49
2024/03/02 10:47:04;;;;;;;16.60;8.63;;;19.50;55.60;;;;;;5036337;28;20041;-49
2024/03/02 10:49:31;;;;;;;12.02;7.22;;;19.50;55.60;;;;;;5036853;28;20052;-50
2024/03/02 10:51:57;;;;;;;11.93;6.57;;;19.50;55.40;;;;;;5038065;28;20880;-51
2024/03/02 10:54:26;;;;;;;14.40;7.03;;;19.50;55.50;;;;;;5038822;28;20036;-51
2024/03/02 10:56:53;;;;;;;13.88;6.88;;;19.50;55.50;;;;;;5036560;28;20033;-50
2024/03/02 10:59:26;;;;;;;15.07;6.70;;;19.40;55.50;;;;;;5038697;28;20033;-50
2024/03/02 11:02:00;;;;;;;11.35;6.28;;;19.40;55.40;;;;;;5014055;28;20052;-50
2024/03/02 11:04:28;;;;;;;9.98;6.32;;;19.40;55.50;;;;;;4985156;28;20037;-50
2024/03/02 11:07:04;;;;;;;9.60;5.93;;;19.40;55.30;;;;;;5034552;28;20040;-50
2024/03/02 11:09:32;;;;;;;11.35;6.80;;;19.40;55.00;;;;;;5035605;28;20072;-49
2024/03/02 11:12:13;;;;;;;10.65;6.70;;;19.40;54.90;;;;;;5035485;28;20083;-50
2024/03/02 11:14:45;;;;;;;9.48;6.22;;;19.40;55.30;;;;;;5016011;28;20029;-48
2024/03/02 11:17:13;;;;;;;9.13;5.32;;;19.40;55.30;;;;;;5033370;28;20438;-50
2024/03/02 11:19:40;;;;;;;9.38;5.13;;;19.30;54.70;;;;;;5027340;28;20037;-49
2024/03/02 11:22:06;;;;;;;7.70;5.00;;;19.30;54.80;;;;;;5036490;28;20158;-49
2024/03/02 11:24:33;;;;;;;6.82;4.95;;;19.30;54.90;;;;;;5034569;28;20033;-51
2024/03/02 11:27:00;;;;;;;6.28;4.63;;;19.30;54.80;;;;;;5032468;28;20036;-52
2024/03/02 11:29:38;;;;;;;6.78;4.60;;;19.30;54.90;;;;;;5032549;28;20040;-53
2024/03/02 11:32:06;;;;;;;7.35;4.78;;;19.30;55.10;;;;;;5033323;28;20520;-49
2024/03/02 11:34:33;;;;;;;5.47;3.92;;;19.20;54.80;;;;;;5031768;28;20048;-50
2024/03/02 11:37:00;;;;;;;5.93;4.15;;;19.20;54.90;;;;;;5032637;28;20041;-49
2024/03/02 11:39:27;;;;;;;5.72;3.80;;;19.20;54.90;;;;;;5034006;28;20699;-50
2024/03/02 11:41:52;;;;;;;4.28;3.53;;;19.20;54.90;;;;;;5032362;28;20032;-49
2024/03/02 11:44:19;;;;;;;5.55;4.47;;;19.20;54.90;;;;;;5032954;28;20441;-52
2024/03/02 11:46:53;;;;;;;5.18;3.83;;;19.20;55.10;;;;;;5035429;28;20071;-51
2024/03/02 11:49:40;;;;;;;5.13;3.33;;;19.20;55.30;;;;;;5035735;28;20041;-51
2024/03/02 11:52:07;;;;;;;5.90;3.65;;;19.20;55.50;;;;;;5039207;28;20033;-51
2024/03/02 11:54:36;;;;;;;5.40;3.60;;;19.20;55.70;;;;;;5035464;28;20378;-50
2024/03/02 11:57:03;;;;;;;5.60;3.67;;;19.20;56.10;;;;;;5035328;28;20033;-49
2024/03/02 11:59:32;;;;;;;5.38;3.67;;;19.30;56.50;;;;;;5035594;28;20123;-49
2024/03/02 12:01:58;;;;;;;4.47;3.60;;;19.30;56.90;;;;;;5037178;28;20037;-49
2024/03/02 12:04:24;;;;;;;8.10;5.80;;;19.30;57.40;;;;;;5031079;28;20041;-51
2024/03/02 12:07:00;;;;;;;12.20;6.97;;;19.30;57.40;;;;;;5031757;28;20089;-52
2024/03/02 12:09:29;;;;;;;12.40;8.23;;;19.40;57.60;;;;;;5034245;28;20399;-49
2024/03/02 12:12:03;;;;;;;16.80;9.50;;;19.40;57.80;;;;;;5030834;28;20042;-48
2024/03/02 12:14:29;;;;;;;13.93;8.88;;;19.40;57.80;;;;;;5038896;28;20100;-51
2024/03/02 12:16:55;;;;;;;15.57;8.75;;;19.40;57.70;;;;;;5040966;28;20117;-50
2024/03/02 12:19:21;;;;;;;18.20;9.65;;;19.40;57.60;;;;;;5043461;28;20048;-49
2024/03/02 12:21:46;;;;;;;14.85;8.80;;;19.40;57.40;;;;;;5043859;28;20045;-49
2024/03/02 12:24:12;;;;;;;16.05;9.32;;;19.40;57.10;;;;;;5039296;28;20092;-50
2024/03/02 12:26:37;;;;;;;15.65;8.82;;;19.40;56.90;;;;;;5038494;28;20040;-53
2024/03/02 12:29:03;;;;;;;12.98;8.00;;;19.30;56.70;;;;;;5043254;28;20041;-49
2024/03/02 12:31:29;;;;;;;13.63;8.00;;;19.30;56.70;;;;;;5019550;28;20113;-49
2024/03/02 12:33:55;;;;;;;15.10;8.18;;;19.30;56.60;;;;;;5039603;28;20047;-50
2024/03/02 12:36:20;;;;;;;15.18;7.75;;;19.30;56.50;;;;;;5038446;28;20064;-51
2024/03/02 12:38:46;;;;;;;13.13;7.55;;;19.30;56.40;;;;;;5042064;28;20045;-48
2024/03/02 12:41:15;;;;;;;13.30;7.35;;;19.30;56.30;;;;;;5037736;28;20033;-47
2024/03/02 12:43:41;;;;;;;11.50;7.45;;;19.40;56.30;;;;;;5036018;28;20044;-59
2024/03/02 12:46:06;;;;;;;10.40;6.10;;;19.40;56.20;;;;;;5038332;28;20025;-49